createdAt,value
2017-06-04T00:00:40.595Z,17.33
2017-06-04T00:02:03.068Z,17.31
2017-06-04T00:03:25.561Z,17.44
2017-06-04T00:04:47.718Z,17.54
2017-06-04T00:06:09.987Z,17.44
2017-06-04T00:07:31.824Z,17.46
2017-06-04T00:08:53.663Z,17.52
2017-06-04T00:10:16.287Z,17.43
2017-06-04T00:11:39.021Z,17.49
2017-06-04T00:13:00.869Z,17.31
2017-06-04T00:14:23.335Z,17.34
2017-06-04T00:15:45.198Z,17.3
2017-06-04T00:17:07.394Z,17.3
2017-06-04T00:18:29.975Z,17.38
2017-06-04T00:19:52.174Z,17.36
2017-06-04T00:21:14.098Z,17.33
2017-06-04T00:22:36.324Z,17.33
2017-06-04T00:23:58.795Z,17.3
2017-06-04T00:25:20.693Z,17.31
2017-06-04T00:26:42.581Z,17.26
2017-06-04T00:28:04.971Z,17.3
2017-06-04T00:29:26.811Z,17.46
2017-06-04T00:30:49.016Z,17.46
2017-06-04T00:32:10.553Z,17.51
2017-06-04T00:33:33.516Z,17.44
2017-06-04T00:34:55.032Z,17.51
2017-06-04T00:36:16.545Z,17.49
2017-06-04T00:37:38.732Z,17.48
2017-06-04T00:39:00.234Z,17.48
2017-06-04T00:40:21.752Z,17.43
2017-06-04T00:41:43.895Z,17.43
2017-06-04T00:43:06.344Z,17.58
2017-06-04T00:44:28.625Z,17.44
2017-06-04T00:45:50.904Z,17.54
2017-06-04T00:47:12.914Z,17.54
2017-06-04T00:48:34.760Z,17.54
2017-06-04T00:49:57.582Z,17.56
2017-06-04T00:51:19.847Z,17.56
2017-06-04T00:52:41.689Z,17.64
2017-06-04T00:54:03.830Z,17.68
2017-06-04T00:55:25.920Z,17.75
2017-06-04T00:56:48.364Z,17.7
2017-06-04T00:58:10.850Z,17.68
2017-06-04T00:59:32.686Z,17.55
2017-06-04T01:00:54.924Z,17.48
2017-06-04T01:02:17.074Z,17.44
2017-06-04T01:03:38.891Z,17.43
2017-06-04T01:05:01.421Z,17.52
2017-06-04T01:06:23.930Z,17.4
2017-06-04T01:07:46.111Z,17.28
2017-06-04T01:09:08.266Z,17.21
2017-06-04T01:10:30.114Z,16.98
2017-06-04T01:11:52.301Z,16.96
2017-06-04T01:13:13.923Z,16.91
2017-06-04T01:14:36.080Z,16.79
2017-06-04T01:15:57.695Z,16.67
2017-06-04T01:17:19.833Z,16.67
2017-06-04T01:18:41.690Z,16.67
2017-06-04T01:20:03.837Z,16.71
2017-06-04T01:21:26.308Z,16.76
2017-06-04T01:22:48.442Z,16.66
2017-06-04T01:24:10.644Z,16.64
2017-06-04T01:25:32.485Z,16.56
2017-06-04T01:26:54.941Z,16.49
2017-06-04T01:28:17.020Z,16.52
2017-06-04T01:29:38.301Z,16.48
2017-06-04T01:31:00.143Z,16.49
2017-06-04T01:32:22.053Z,16.45
2017-06-04T01:33:44.231Z,16.45
2017-06-04T01:35:06.372Z,16.35
2017-06-04T01:36:28.274Z,16.25
2017-06-04T01:37:50.120Z,16.23
2017-06-04T01:39:12.232Z,16.27
2017-06-04T01:40:34.231Z,16.3
2017-06-04T01:41:55.746Z,16.12
2017-06-04T01:43:17.939Z,16.09
2017-06-04T01:44:40.394Z,16.07
2017-06-04T01:46:01.914Z,16.02
2017-06-04T01:47:23.744Z,16.04
2017-06-04T01:48:45.735Z,16.01
2017-06-04T01:50:08.445Z,15.97
2017-06-04T01:51:29.950Z,15.82
2017-06-04T01:52:52.141Z,15.8
2017-06-04T01:54:13.638Z,15.72
2017-06-04T01:55:36.345Z,15.75
2017-06-04T01:56:58.493Z,15.78
2017-06-04T01:58:20.644Z,15.76
2017-06-04T01:59:42.866Z,15.69
2017-06-04T02:01:05.387Z,15.62
2017-06-04T02:02:27.893Z,15.65
2017-06-04T02:03:49.399Z,15.68
2017-06-04T02:05:11.220Z,15.68
2017-06-04T02:06:33.663Z,15.65
2017-06-04T02:07:56.106Z,15.72
2017-06-04T02:09:17.929Z,15.62
2017-06-04T02:10:40.084Z,15.72
2017-06-04T02:12:02.831Z,15.69
2017-06-04T02:13:24.676Z,15.8
2017-06-04T02:14:47.146Z,15.68
2017-06-04T02:16:08.678Z,15.74
2017-06-04T02:17:31.042Z,15.78
2017-06-04T02:18:53.333Z,15.64
2017-06-04T02:20:15.633Z,15.68
2017-06-04T02:21:37.453Z,15.75
2017-06-04T02:22:59.570Z,15.71
2017-06-04T02:24:21.389Z,15.67
2017-06-04T02:25:43.218Z,15.68
2017-06-04T02:27:05.053Z,15.65
2017-06-04T02:28:27.255Z,15.6
2017-06-04T02:29:48.775Z,15.76
2017-06-04T02:31:10.664Z,15.69
2017-06-04T02:32:32.839Z,15.65
2017-06-04T02:33:54.601Z,15.62
2017-06-04T02:35:16.823Z,15.65
2017-06-04T02:36:38.672Z,15.67
2017-06-04T02:38:00.814Z,15.67
2017-06-04T02:39:22.592Z,15.68
2017-06-04T02:40:44.403Z,15.67
2017-06-04T02:42:06.873Z,15.67
2017-06-04T02:43:28.383Z,15.68
2017-06-04T02:44:51.450Z,15.69
2017-06-04T02:46:13.638Z,15.67
2017-06-04T02:47:35.483Z,15.6
2017-06-04T02:48:57.629Z,15.56
2017-06-04T02:50:20.435Z,15.59
2017-06-04T02:51:42.278Z,15.62
2017-06-04T02:53:04.103Z,15.53
2017-06-04T02:54:25.622Z,15.59
2017-06-04T02:55:47.743Z,15.44
2017-06-04T02:57:10.213Z,15.57
2017-06-04T02:58:32.183Z,15.41
2017-06-04T02:59:54.040Z,15.46
2017-06-04T03:01:16.175Z,15.47
2017-06-04T03:02:38.744Z,15.38
2017-06-04T03:04:00.568Z,15.38
2017-06-04T03:05:22.399Z,15.36
2017-06-04T03:06:45.180Z,15.39
2017-06-04T03:08:07.659Z,15.35
2017-06-04T03:09:29.792Z,15.38
2017-06-04T03:10:51.621Z,15.36
2017-06-04T03:12:13.679Z,15.35
2017-06-04T03:13:35.814Z,15.25
2017-06-04T03:14:57.623Z,15.38
2017-06-04T03:16:19.483Z,15.31
2017-06-04T03:17:41.893Z,15.32
2017-06-04T03:19:03.430Z,15.2
2017-06-04T03:20:25.583Z,15.14
2017-06-04T03:21:47.743Z,15.27
2017-06-04T03:23:10.132Z,15.17
2017-06-04T03:24:32.274Z,15.21
2017-06-04T03:25:54.096Z,15.16
2017-06-04T03:27:15.347Z,15.2
2017-06-04T03:28:37.855Z,15.2
2017-06-04T03:30:00.052Z,15.2
2017-06-04T03:31:21.555Z,15.19
2017-06-04T03:32:43.690Z,15.09
2017-06-04T03:34:05.822Z,15.17
2017-06-04T03:35:27.323Z,15.23
2017-06-04T03:36:49.453Z,15.14
2017-06-04T03:38:11.612Z,15.2
2017-06-04T03:39:33.514Z,15.21
2017-06-04T03:40:55.381Z,15.28
2017-06-04T03:42:17.045Z,15.27
2017-06-04T03:43:39.543Z,15.19
2017-06-04T03:45:01.617Z,15.14
2017-06-04T03:46:23.218Z,15.2
2017-06-04T03:47:45.065Z,15.23
2017-06-04T03:49:07.523Z,15.16
2017-06-04T03:50:29.970Z,15.27
2017-06-04T03:51:52.120Z,15.25
2017-06-04T03:53:14.283Z,15.29
2017-06-04T03:54:36.139Z,15.29
2017-06-04T03:55:58.514Z,15.29
2017-06-04T03:57:20.386Z,15.36
2017-06-04T03:58:42.237Z,15.35
2017-06-04T04:00:03.833Z,15.46
2017-06-04T04:01:25.971Z,15.44
2017-06-04T04:02:48.436Z,15.43
2017-06-04T04:04:11.018Z,15.54
2017-06-04T04:05:32.531Z,15.65
2017-06-04T04:06:54.430Z,15.56
2017-06-04T04:08:16.275Z,15.62
2017-06-04T04:09:38.102Z,15.67
2017-06-04T04:10:59.609Z,15.65
2017-06-04T04:12:22.063Z,15.68
2017-06-04T04:13:43.572Z,15.65
2017-06-04T04:15:06.039Z,15.65
2017-06-04T04:16:27.311Z,15.69
2017-06-04T04:17:49.773Z,15.69
2017-06-04T04:19:11.273Z,15.68
2017-06-04T04:20:33.379Z,15.68
2017-06-04T04:21:55.513Z,15.67
2017-06-04T04:23:17.396Z,15.69
2017-06-04T04:24:39.537Z,15.67
2017-06-04T04:26:01.050Z,15.78
2017-06-04T04:27:23.325Z,15.72
2017-06-04T04:28:46.093Z,15.68
2017-06-04T04:30:07.961Z,15.68
2017-06-04T04:31:29.584Z,15.62
2017-06-04T04:32:51.409Z,15.68
2017-06-04T04:34:13.873Z,15.75
2017-06-04T04:35:36.048Z,15.67
2017-06-04T04:36:58.238Z,15.65
2017-06-04T04:38:19.793Z,15.65
2017-06-04T04:39:42.358Z,15.54
2017-06-04T04:41:04.824Z,15.51
2017-06-04T04:42:26.328Z,15.59
2017-06-04T04:43:48.613Z,15.59
2017-06-04T04:45:11.421Z,15.41
2017-06-04T04:46:33.256Z,15.47
2017-06-04T04:47:54.752Z,15.39
2017-06-04T04:49:16.647Z,15.46
2017-06-04T04:50:38.836Z,15.49
2017-06-04T04:52:00.983Z,15.43
2017-06-04T04:53:23.453Z,15.53
2017-06-04T04:54:45.613Z,15.6
2017-06-04T04:56:08.134Z,15.59
2017-06-04T04:57:30.645Z,15.44
2017-06-04T04:58:52.792Z,15.44
2017-06-04T05:00:15.104Z,15.6
2017-06-04T05:01:36.925Z,15.57
2017-06-04T05:02:58.773Z,15.57
2017-06-04T05:04:20.613Z,15.56
2017-06-04T05:05:42.538Z,15.56
2017-06-04T05:07:04.669Z,15.56
2017-06-04T05:08:26.833Z,15.49
2017-06-04T05:09:49.300Z,15.65
2017-06-04T05:11:11.134Z,15.65
2017-06-04T05:12:33.393Z,15.62
2017-06-04T05:13:55.522Z,15.64
2017-06-04T05:15:16.794Z,15.68
2017-06-04T05:16:38.724Z,15.65
2017-06-04T05:18:00.874Z,15.67
2017-06-04T05:19:23.343Z,15.67
2017-06-04T05:20:45.183Z,15.67
2017-06-04T05:22:07.014Z,15.71
2017-06-04T05:23:28.853Z,15.69
2017-06-04T05:24:51.004Z,15.69
2017-06-04T05:26:13.242Z,15.68
2017-06-04T05:27:35.402Z,15.68
2017-06-04T05:28:57.268Z,15.62
2017-06-04T05:30:18.997Z,15.67
2017-06-04T05:31:40.815Z,15.68
2017-06-04T05:33:02.813Z,15.62
2017-06-04T05:34:25.703Z,15.65
2017-06-04T05:35:47.560Z,15.68
2017-06-04T05:37:09.703Z,15.82
2017-06-04T05:38:31.547Z,15.75
2017-06-04T05:39:53.744Z,15.75
2017-06-04T05:41:16.033Z,15.89
2017-06-04T05:42:37.905Z,15.82
2017-06-04T05:44:00.361Z,15.9
2017-06-04T05:45:22.263Z,16.07
2017-06-04T05:46:44.522Z,16.07
2017-06-04T05:48:05.819Z,16.08
2017-06-04T05:49:27.685Z,16.08
2017-06-04T05:50:49.814Z,16.11
2017-06-04T05:52:12.025Z,16.07
2017-06-04T05:53:34.166Z,16.07
2017-06-04T05:54:56.319Z,16.12
2017-06-04T05:56:17.825Z,16.08
2017-06-04T05:57:40.284Z,16.04
2017-06-04T05:59:02.126Z,16.04
2017-06-04T06:00:23.961Z,16.07
2017-06-04T06:01:46.413Z,16.05
2017-06-04T06:03:08.559Z,16.09
2017-06-04T06:04:30.413Z,16.09
2017-06-04T06:05:52.546Z,16.07
2017-06-04T06:07:15.175Z,16.07
2017-06-04T06:08:37.066Z,16.09
2017-06-04T06:09:58.910Z,16.17
2017-06-04T06:11:21.072Z,16.12
2017-06-04T06:12:43.449Z,16.17
2017-06-04T06:14:05.925Z,16.2
2017-06-04T06:15:28.054Z,16.23
2017-06-04T06:16:49.578Z,16.24
2017-06-04T06:18:11.728Z,16.27
2017-06-04T06:19:33.884Z,16.27
2017-06-04T06:20:56.025Z,16.27
2017-06-04T06:22:17.964Z,16.25
2017-06-04T06:23:40.408Z,16.17
2017-06-04T06:25:02.563Z,16.12
2017-06-04T06:26:24.391Z,16.12
2017-06-04T06:27:46.236Z,16.11
2017-06-04T06:29:08.241Z,16.15
2017-06-04T06:30:30.385Z,16.12
2017-06-04T06:31:52.904Z,16.15
2017-06-04T06:33:15.075Z,16.27
2017-06-04T06:34:37.773Z,16.31
2017-06-04T06:36:00.313Z,16.42
2017-06-04T06:37:21.835Z,16.46
2017-06-04T06:38:43.664Z,16.63
2017-06-04T06:40:05.812Z,16.63
2017-06-04T06:41:27.995Z,16.68
2017-06-04T06:42:49.884Z,16.68
2017-06-04T06:44:12.452Z,16.82
2017-06-04T06:45:34.527Z,16.83
2017-06-04T06:46:56.034Z,16.91
2017-06-04T06:48:18.194Z,16.96
2017-06-04T06:49:39.721Z,17.04
2017-06-04T06:51:02.181Z,16.93
2017-06-04T06:52:24.325Z,16.93
2017-06-04T06:53:45.874Z,16.96
2017-06-04T06:55:07.713Z,16.91
2017-06-04T06:56:29.871Z,16.91
2017-06-04T06:57:52.331Z,16.86
2017-06-04T06:59:14.494Z,16.79
2017-06-04T07:00:36.336Z,16.7
2017-06-04T07:01:59.179Z,16.61
2017-06-04T07:03:21.352Z,16.49
2017-06-04T07:04:43.834Z,16.5
2017-06-04T07:06:05.687Z,16.48
2017-06-04T07:07:28.064Z,16.57
2017-06-04T07:08:50.274Z,16.76
2017-06-04T07:10:12.123Z,16.86
2017-06-04T07:11:34.282Z,16.85
2017-06-04T07:12:57.052Z,17.03
2017-06-04T07:14:18.598Z,17.04
2017-06-04T07:15:40.854Z,17.11
2017-06-04T07:17:02.671Z,17.11
2017-06-04T07:18:24.769Z,17.06
2017-06-04T07:19:46.934Z,16.88
2017-06-04T07:21:08.119Z,16.85
2017-06-04T07:22:30.295Z,17.01
2017-06-04T07:23:53.145Z,17.06
2017-06-04T07:25:15.297Z,17.06
2017-06-04T07:26:37.824Z,16.98
2017-06-04T07:27:59.354Z,17.19
2017-06-04T07:29:21.484Z,17.48
2017-06-04T07:30:43.625Z,17.62
2017-06-04T07:32:05.796Z,17.84
2017-06-04T07:33:27.634Z,18.15
2017-06-04T07:34:50.344Z,18.36
2017-06-04T07:36:12.525Z,18.52
2017-06-04T07:37:34.714Z,18.6
2017-06-04T07:38:56.611Z,18.6
2017-06-04T07:40:18.751Z,18.6
2017-06-04T07:41:40.635Z,18.5
2017-06-04T07:43:02.562Z,18.55
2017-06-04T07:44:24.181Z,18.57
2017-06-04T07:45:46.717Z,18.55
2017-06-04T07:47:09.199Z,18.54
2017-06-04T07:48:30.783Z,18.44
2017-06-04T07:49:53.285Z,18.21
2017-06-04T07:51:15.798Z,18.11
2017-06-04T07:52:37.624Z,17.95
2017-06-04T07:53:59.497Z,17.92
2017-06-04T07:55:21.709Z,18.05
2017-06-04T07:56:44.523Z,17.92
2017-06-04T07:58:06.688Z,17.9
2017-06-04T07:59:28.905Z,18.08
2017-06-04T08:00:51.458Z,18.23
2017-06-04T08:02:13.973Z,18.33
2017-06-04T08:03:35.924Z,18.52
2017-06-04T08:04:58.453Z,18.55
2017-06-04T08:06:20.615Z,18.82
2017-06-04T08:07:42.813Z,18.98
2017-06-04T08:09:04.376Z,19.1
2017-06-04T08:10:26.852Z,19.16
2017-06-04T08:11:49.045Z,19.04
2017-06-04T08:13:11.585Z,19.04
2017-06-04T08:14:33.902Z,19.08
2017-06-04T08:15:56.061Z,18.99
2017-06-04T08:17:17.937Z,18.9
2017-06-04T08:18:40.396Z,19.08
2017-06-04T08:20:02.378Z,19.18
2017-06-04T08:21:24.234Z,19.44
2017-06-04T08:22:46.452Z,19.44
2017-06-04T08:24:08.730Z,19.56
2017-06-04T08:25:30.909Z,19.71
2017-06-04T08:26:53.405Z,19.78
2017-06-04T08:28:15.555Z,19.91
2017-06-04T08:29:38.137Z,20.02
2017-06-04T08:31:00.294Z,20.03
2017-06-04T08:32:22.534Z,20.02
2017-06-04T08:33:44.688Z,20.11
2017-06-04T08:35:07.657Z,20.32
2017-06-04T08:36:29.807Z,20.33
2017-06-04T08:37:52.012Z,20.29
2017-06-04T08:39:14.175Z,20.28
2017-06-04T08:40:36.006Z,20.38
2017-06-04T08:41:58.173Z,20.31
2017-06-04T08:43:20.664Z,20.43
2017-06-04T08:44:43.150Z,20.42
2017-06-04T08:46:05.565Z,20.17
2017-06-04T08:47:27.430Z,20.06
2017-06-04T08:48:49.585Z,20.28
2017-06-04T08:50:12.051Z,20.35
2017-06-04T08:51:34.786Z,20.5
2017-06-04T08:52:56.315Z,20.51
2017-06-04T08:54:18.563Z,20.38
2017-06-04T08:55:40.424Z,20.5
2017-06-04T08:57:02.601Z,20.43
2017-06-04T08:58:25.097Z,20.55
2017-06-04T08:59:47.256Z,20.77
2017-06-04T09:01:09.104Z,20.77
2017-06-04T09:02:31.248Z,20.84
2017-06-04T09:03:53.733Z,20.82
2017-06-04T09:05:16.025Z,20.73
2017-06-04T09:06:38.211Z,20.77
2017-06-04T09:08:00.719Z,20.79
2017-06-04T09:09:23.212Z,20.77
2017-06-04T09:10:45.499Z,20.94
2017-06-04T09:12:07.672Z,20.98
2017-06-04T09:13:30.221Z,21.1
2017-06-04T09:14:52.379Z,21.19
2017-06-04T09:16:14.246Z,21.69
2017-06-04T09:17:36.555Z,22.05
2017-06-04T09:18:59.336Z,21.8
2017-06-04T09:20:21.160Z,21.94
2017-06-04T09:21:43.336Z,21.62
2017-06-04T09:23:05.198Z,21.88
2017-06-04T09:24:28.015Z,21.99
2017-06-04T09:25:50.196Z,22.22
2017-06-04T09:27:12.355Z,22.05
2017-06-04T09:28:34.875Z,22.06
2017-06-04T09:29:57.645Z,22.03
2017-06-04T09:31:20.156Z,22.14
2017-06-04T09:32:42.011Z,22.05
2017-06-04T09:34:04.239Z,21.9
2017-06-04T09:35:26.985Z,21.88
2017-06-04T09:36:49.201Z,21.91
2017-06-04T09:38:11.046Z,21.98
2017-06-04T09:39:33.543Z,22
2017-06-04T09:40:56.047Z,21.94
2017-06-04T09:42:18.546Z,21.74
2017-06-04T09:43:41.150Z,21.75
2017-06-04T09:45:03.726Z,21.91
2017-06-04T09:46:26.196Z,21.98
2017-06-04T09:47:48.147Z,22.21
2017-06-04T09:49:10.854Z,22.24
2017-06-04T09:50:33.083Z,22.21
2017-06-04T09:51:54.876Z,21.99
2017-06-04T09:53:17.050Z,21.98
2017-06-04T09:54:38.723Z,21.83
2017-06-04T09:56:01.296Z,21.79
2017-06-04T09:57:23.809Z,21.98
2017-06-04T09:58:46.077Z,22.05
2017-06-04T10:00:08.247Z,22.07
2017-06-04T10:01:30.404Z,22.03
2017-06-04T10:02:53.064Z,21.83
2017-06-04T10:04:15.613Z,21.46
2017-06-04T10:05:37.558Z,21.71
2017-06-04T10:06:59.404Z,21.94
2017-06-04T10:08:22.237Z,21.77
2017-06-04T10:09:44.175Z,21.68
2017-06-04T10:11:06.353Z,21.46
2017-06-04T10:12:28.201Z,21.44
2017-06-04T10:13:50.615Z,21.71
2017-06-04T10:15:13.169Z,21.82
2017-06-04T10:16:35.093Z,21.79
2017-06-04T10:17:56.943Z,21.83
2017-06-04T10:19:19.161Z,21.8
2017-06-04T10:20:41.024Z,21.58
2017-06-04T10:22:03.749Z,21.43
2017-06-04T10:23:26.219Z,21.44
2017-06-04T10:24:48.314Z,21.21
2017-06-04T10:26:10.149Z,21.16
2017-06-04T10:27:32.817Z,21.06
2017-06-04T10:28:55.299Z,21.27
2017-06-04T10:30:17.855Z,21.58
2017-06-04T10:31:40.023Z,22.03
2017-06-04T10:33:02.251Z,22.17
2017-06-04T10:34:24.728Z,22.36
2017-06-04T10:35:47.192Z,22.2
2017-06-04T10:37:09.045Z,22.28
2017-06-04T10:38:31.221Z,22.22
2017-06-04T10:39:53.395Z,22.03
2017-06-04T10:41:15.942Z,21.71
2017-06-04T10:42:38.232Z,21.68
2017-06-04T10:44:00.705Z,21.86
2017-06-04T10:45:22.916Z,22.09
2017-06-04T10:46:45.334Z,22.07
2017-06-04T10:48:07.833Z,22
2017-06-04T10:49:30.389Z,22.09
2017-06-04T10:50:52.555Z,21.74
2017-06-04T10:52:15.031Z,22.06
2017-06-04T10:53:36.551Z,21.92
2017-06-04T10:54:58.097Z,21.88
2017-06-04T10:56:20.268Z,22.05
2017-06-04T10:57:42.374Z,22.17
2017-06-04T10:59:04.584Z,22.09
2017-06-04T11:00:27.086Z,22.33
2017-06-04T11:01:48.996Z,22.72
2017-06-04T11:03:11.491Z,22.95
2017-06-04T11:04:33.721Z,22.98
2017-06-04T11:05:55.617Z,22.9
2017-06-04T11:07:17.772Z,22.95
2017-06-04T11:08:40.330Z,23.2
2017-06-04T11:10:02.824Z,23.31
2017-06-04T11:11:25.382Z,22.91
2017-06-04T11:12:47.871Z,22.67
2017-06-04T11:14:10.032Z,22.35
2017-06-04T11:15:31.580Z,22.14
2017-06-04T11:16:53.441Z,22.28
2017-06-04T11:18:15.304Z,22.35
2017-06-04T11:19:38.253Z,22.35
2017-06-04T11:21:00.430Z,22.03
2017-06-04T11:22:22.288Z,21.9
2017-06-04T11:23:44.216Z,21.67
2017-06-04T11:25:07.057Z,21.65
2017-06-04T11:26:29.342Z,21.53
2017-06-04T11:27:51.607Z,21.5
2017-06-04T11:29:14.080Z,21.77
2017-06-04T11:30:36.698Z,21.96
2017-06-04T11:31:58.862Z,22.21
2017-06-04T11:33:20.750Z,22.68
2017-06-04T11:34:43.223Z,23.22
2017-06-04T11:36:05.491Z,23.55
2017-06-04T11:37:27.342Z,23.8
2017-06-04T11:38:49.512Z,23.55
2017-06-04T11:40:11.381Z,23.33
2017-06-04T11:41:34.020Z,23.31
2017-06-04T11:42:55.853Z,23.5
2017-06-04T11:44:18.351Z,23.35
2017-06-04T11:45:40.871Z,23.31
2017-06-04T11:47:03.683Z,23.1
2017-06-04T11:48:26.201Z,22.64
2017-06-04T11:49:48.371Z,22.28
2017-06-04T11:51:10.555Z,22.28
2017-06-04T11:52:33.126Z,22.17
2017-06-04T11:53:54.969Z,22
2017-06-04T11:55:17.584Z,21.9
2017-06-04T11:56:40.180Z,22.18
2017-06-04T11:58:02.320Z,22.55
2017-06-04T11:59:23.936Z,23
2017-06-04T12:00:46.524Z,23.36
2017-06-04T12:02:08.710Z,23.7
2017-06-04T12:03:31.191Z,23.72
2017-06-04T12:04:53.350Z,23.57
2017-06-04T12:06:15.323Z,23.7
2017-06-04T12:07:37.583Z,23.61
2017-06-04T12:09:00.389Z,23.28
2017-06-04T12:10:22.306Z,23.28
2017-06-04T12:11:44.160Z,23.43
2017-06-04T12:13:06.320Z,23.83
2017-06-04T12:14:28.869Z,24.12
2017-06-04T12:15:51.031Z,24.06
2017-06-04T12:17:12.910Z,24.27
2017-06-04T12:18:34.771Z,24.39
2017-06-04T12:19:57.190Z,24.13
2017-06-04T12:21:19.050Z,24.22
2017-06-04T12:22:40.928Z,24.12
2017-06-04T12:24:03.097Z,23.94
2017-06-04T12:25:25.516Z,23.88
2017-06-04T12:26:48.001Z,23.85
2017-06-04T12:28:10.180Z,23.72
2017-06-04T12:29:32.043Z,23.78
2017-06-04T12:30:54.471Z,24.15
2017-06-04T12:32:16.669Z,24.37
2017-06-04T12:33:39.221Z,24.24
2017-06-04T12:35:01.400Z,24.25
2017-06-04T12:36:23.870Z,24.32
2017-06-04T12:37:46.049Z,23.55
2017-06-04T12:39:08.223Z,23.02
2017-06-04T12:40:30.470Z,23.01
2017-06-04T12:41:52.998Z,23.39
2017-06-04T12:43:15.168Z,23.69
2017-06-04T12:44:37.341Z,23.93
2017-06-04T12:45:59.860Z,23.84
2017-06-04T12:47:22.370Z,23.85
2017-06-04T12:48:44.557Z,23.83
2017-06-04T12:50:06.720Z,23.94
2017-06-04T12:51:29.269Z,23.61
2017-06-04T12:52:52.058Z,23.09
2017-06-04T12:54:13.901Z,22.86
2017-06-04T12:55:36.380Z,22.88
2017-06-04T12:56:58.959Z,22.88
2017-06-04T12:58:20.820Z,22.75
2017-06-04T12:59:43.309Z,22.31
2017-06-04T13:01:04.533Z,22.33
2017-06-04T13:02:27.016Z,22.51
2017-06-04T13:03:49.854Z,22.62
2017-06-04T13:05:12.020Z,22.72
2017-06-04T13:06:34.199Z,22.58
2017-06-04T13:07:56.053Z,22.54
2017-06-04T13:09:18.473Z,22.47
2017-06-04T13:10:40.995Z,22.52
2017-06-04T13:12:03.521Z,22.4
2017-06-04T13:13:25.368Z,22.33
2017-06-04T13:14:47.822Z,22.24
2017-06-04T13:16:09.981Z,22.22
2017-06-04T13:17:31.832Z,22.07
2017-06-04T13:18:53.990Z,22.07
2017-06-04T13:20:16.811Z,22.14
2017-06-04T13:21:38.675Z,22.21
2017-06-04T13:23:01.172Z,22.46
2017-06-04T13:24:23.041Z,22.58
2017-06-04T13:25:45.458Z,22.75
2017-06-04T13:27:07.638Z,22.7
2017-06-04T13:28:30.116Z,22.88
2017-06-04T13:29:52.613Z,23.05
2017-06-04T13:31:15.089Z,23.28
2017-06-04T13:32:37.259Z,23.09
2017-06-04T13:33:59.773Z,22.95
2017-06-04T13:35:22.260Z,22.97
2017-06-04T13:36:44.519Z,22.88
2017-06-04T13:38:07.022Z,22.79
2017-06-04T13:39:29.189Z,22.58
2017-06-04T13:40:51.364Z,22.52
2017-06-04T13:42:13.792Z,22.54
2017-06-04T13:43:36.319Z,22.45
2017-06-04T13:44:58.789Z,22.57
2017-06-04T13:46:21.322Z,22.7
2017-06-04T13:47:43.468Z,22.85
2017-06-04T13:49:05.970Z,22.82
2017-06-04T13:50:27.807Z,22.79
2017-06-04T13:51:50.032Z,22.7
2017-06-04T13:53:12.181Z,22.46
2017-06-04T13:54:34.010Z,22.21
2017-06-04T13:55:56.569Z,22.15
2017-06-04T13:57:18.432Z,21.98
2017-06-04T13:58:40.983Z,21.92
2017-06-04T14:00:02.829Z,21.84
2017-06-04T14:01:25.014Z,21.86
2017-06-04T14:02:46.222Z,21.94
2017-06-04T14:04:08.442Z,22.14
2017-06-04T14:05:30.291Z,22.22
2017-06-04T14:06:52.769Z,22.47
2017-06-04T14:08:14.648Z,22.72
2017-06-04T14:09:37.051Z,22.91
2017-06-04T14:10:59.538Z,22.95
2017-06-04T14:12:21.710Z,23.09
2017-06-04T14:13:44.233Z,23.25
2017-06-04T14:15:06.402Z,23.27
2017-06-04T14:16:28.572Z,23.43
2017-06-04T14:17:50.441Z,23.72
2017-06-04T14:19:12.684Z,23.76
2017-06-04T14:20:35.103Z,23.9
2017-06-04T14:21:57.614Z,24.13
2017-06-04T14:23:20.172Z,24.21
2017-06-04T14:24:42.352Z,24.16
2017-06-04T14:26:04.124Z,24.12
2017-06-04T14:27:26.305Z,24.15
2017-06-04T14:28:48.161Z,24.02
2017-06-04T14:30:10.022Z,23.75
2017-06-04T14:31:32.504Z,23.6
2017-06-04T14:32:54.364Z,23.22
2017-06-04T14:34:16.222Z,23.04
2017-06-04T14:35:38.402Z,23.05
2017-06-04T14:37:01.160Z,22.97
2017-06-04T14:38:23.463Z,23
2017-06-04T14:39:45.660Z,22.88
2017-06-04T14:41:07.818Z,23.05
2017-06-04T14:42:29.861Z,23.42
2017-06-04T14:43:52.045Z,23.72
2017-06-04T14:45:14.691Z,23.57
2017-06-04T14:46:36.852Z,23.46
2017-06-04T14:47:58.972Z,23.32
2017-06-04T14:49:20.961Z,23.13
2017-06-04T14:50:43.172Z,22.95
2017-06-04T14:52:05.754Z,23.04
2017-06-04T14:53:28.523Z,23.01
2017-06-04T14:54:51.153Z,23.12
2017-06-04T14:56:13.632Z,23.13
2017-06-04T14:57:35.793Z,23.02
2017-06-04T14:58:58.611Z,22.8
2017-06-04T15:00:20.902Z,22.77
2017-06-04T15:01:42.809Z,22.85
2017-06-04T15:03:04.983Z,23.04
2017-06-04T15:04:27.684Z,23.23
2017-06-04T15:05:50.155Z,22.91
2017-06-04T15:07:12.651Z,22.82
2017-06-04T15:08:34.838Z,22.62
2017-06-04T15:09:58.003Z,22.42
2017-06-04T15:11:20.273Z,22.36
2017-06-04T15:12:42.452Z,22.36
2017-06-04T15:14:04.305Z,22.3
2017-06-04T15:15:27.161Z,22.28
2017-06-04T15:16:49.315Z,22.33
2017-06-04T15:18:11.536Z,22.42
2017-06-04T15:19:33.382Z,22.25
2017-06-04T15:20:55.881Z,22.21
2017-06-04T15:22:18.096Z,22.2
2017-06-04T15:23:40.293Z,22.09
2017-06-04T15:25:02.788Z,21.99
2017-06-04T15:26:25.267Z,22.05
2017-06-04T15:27:47.733Z,21.9
2017-06-04T15:29:09.440Z,21.72
2017-06-04T15:30:31.640Z,21.42
2017-06-04T15:31:53.706Z,21.25
2017-06-04T15:33:15.923Z,20.98
2017-06-04T15:34:38.512Z,20.77
2017-06-04T15:36:00.993Z,20.51
2017-06-04T15:37:23.352Z,20.31
2017-06-04T15:38:45.290Z,20.13
2017-06-04T15:40:07.171Z,20.03
2017-06-04T15:41:29.646Z,19.94
2017-06-04T15:42:51.893Z,19.74
2017-06-04T15:44:13.751Z,19.76
2017-06-04T15:45:36.239Z,19.65
2017-06-04T15:46:57.807Z,19.59
2017-06-04T15:48:20.283Z,19.59
2017-06-04T15:49:42.450Z,19.65
2017-06-04T15:51:04.624Z,19.71
2017-06-04T15:52:27.115Z,19.76
2017-06-04T15:53:49.915Z,20.01
2017-06-04T15:55:12.393Z,20.28
2017-06-04T15:56:34.232Z,20.66
2017-06-04T15:57:56.091Z,21.07
2017-06-04T15:59:18.942Z,21.46
2017-06-04T16:00:40.900Z,21.83
2017-06-04T16:02:03.070Z,22.06
2017-06-04T16:03:25.660Z,22.39
2017-06-04T16:04:48.335Z,22.68
2017-06-04T16:06:10.511Z,22.62
2017-06-04T16:07:32.696Z,22.68
2017-06-04T16:08:54.957Z,22.79
2017-06-04T16:10:17.383Z,22.58
2017-06-04T16:11:39.881Z,22.05
2017-06-04T16:13:02.362Z,21.75
2017-06-04T16:14:24.833Z,21.58
2017-06-04T16:15:47.268Z,21.4
2017-06-04T16:17:08.789Z,21.24
2017-06-04T16:18:30.963Z,21.17
2017-06-04T16:19:53.118Z,20.76
2017-06-04T16:21:15.883Z,20.43
2017-06-04T16:22:38.575Z,20.13
2017-06-04T16:24:00.754Z,20.11
2017-06-04T16:25:22.616Z,20.1
2017-06-04T16:26:45.265Z,19.88
2017-06-04T16:28:07.431Z,19.92
2017-06-04T16:29:29.940Z,19.8
2017-06-04T16:30:52.131Z,19.88
2017-06-04T16:32:14.610Z,19.95
2017-06-04T16:33:37.133Z,19.96
2017-06-04T16:34:58.686Z,19.74
2017-06-04T16:36:20.852Z,19.71
2017-06-04T16:37:42.694Z,19.76
2017-06-04T16:39:04.864Z,19.8
2017-06-04T16:40:27.335Z,19.98
2017-06-04T16:41:49.941Z,19.69
2017-06-04T16:43:12.103Z,19.83
2017-06-04T16:44:34.424Z,19.78
2017-06-04T16:45:57.020Z,19.73
2017-06-04T16:47:18.232Z,19.73
2017-06-04T16:48:40.715Z,19.62
2017-06-04T16:50:03.192Z,19.65
2017-06-04T16:51:25.765Z,19.43
2017-06-04T16:52:48.243Z,19.32
2017-06-04T16:54:10.800Z,19.46
2017-06-04T16:55:32.972Z,19.44
2017-06-04T16:56:55.463Z,19.37
2017-06-04T16:58:17.750Z,19.4
2017-06-04T16:59:40.203Z,19.36
2017-06-04T17:01:02.377Z,19.29
2017-06-04T17:02:24.234Z,19.37
2017-06-04T17:03:46.738Z,19.33
2017-06-04T17:05:09.259Z,19.16
2017-06-04T17:06:31.823Z,19.18
2017-06-04T17:07:53.834Z,19.25
2017-06-04T17:09:16.004Z,19.5
2017-06-04T17:10:38.513Z,19.41
2017-06-04T17:12:01.036Z,19.46
2017-06-04T17:13:23.643Z,19.44
2017-06-04T17:14:45.803Z,19.36
2017-06-04T17:16:08.733Z,19.26
2017-06-04T17:17:30.952Z,19.21
2017-06-04T17:18:52.820Z,19.08
2017-06-04T17:20:15.317Z,18.92
2017-06-04T17:21:37.843Z,18.98
2017-06-04T17:23:00.030Z,18.98
2017-06-04T17:24:22.245Z,19.08
2017-06-04T17:25:44.723Z,19.19
2017-06-04T17:27:06.964Z,19.19
2017-06-04T17:28:29.454Z,19.37
2017-06-04T17:29:51.305Z,19.56
2017-06-04T17:31:13.195Z,19.46
2017-06-04T17:32:35.392Z,19.54
2017-06-04T17:33:57.585Z,19.88
2017-06-04T17:35:19.522Z,19.59
2017-06-04T17:36:42.012Z,19.5
2017-06-04T17:38:04.589Z,19.46
2017-06-04T17:39:27.212Z,19.37
2017-06-04T17:40:49.900Z,19.08
2017-06-04T17:42:12.085Z,19.07